Terminal Aerodrome Forecast
Issued by NWS

Home | Current Version | Previous Version | Text Only | Print | Product List | Glossary On
Versions: 1 2 3 4 5 6 7 8 9 10 11 12 13 14 15 16 17 18 19 20 21 22 23 24 25 26 27 28 29 30 31 32 33 34
000
FTUS46 KPQR 281812 AAA
TAFONP
TAF AMD
KONP 281812Z 2818/2918 18014G22KT P6SM FEW020 BKN090
     FM290200 18017G25KT P6SM -RA SCT025 OVC040
     FM290500 19022G32KT 5SM -RA BR OVC025
     FM290800 19028G38KT 4SM RA BR OVC020=

USA.gov is the U.S. government's official web portal to all federal, state and local government web resources and services.